sensor_id;sensor_type;location;lat;lon;timestamp;P1;P2;P0
61804;PMS7003;47725;47.912;7.356;2023-09-30T00:01:39;3.90;1.95;
61804;PMS7003;47725;47.912;7.356;2023-09-30T00:05:39;2.92;1.95;
61804;PMS7003;47725;47.912;7.356;2023-09-30T00:09:39;2.92;1.95;
61804;PMS7003;47725;47.912;7.356;2023-09-30T00:13:39;2.92;1.95;
61804;PMS7003;47725;47.912;7.356;2023-09-30T00:17:39;4.86;3.89;
61804;PMS7003;47725;47.912;7.356;2023-09-30T00:21:39;4.86;3.89;
61804;PMS7003;47725;47.912;7.356;2023-09-30T00:25:39;3.89;1.94;
61804;PMS7003;47725;47.912;7.356;2023-09-30T00:29:39;3.89;1.94;
61804;PMS7003;47725;47.912;7.356;2023-09-30T00:33:39;3.89;1.94;
61804;PMS7003;47725;47.912;7.356;2023-09-30T00:37:40;2.91;2.91;
61804;PMS7003;47725;47.912;7.356;2023-09-30T00:41:39;2.91;2.91;
61804;PMS7003;47725;47.912;7.356;2023-09-30T00:45:39;1.94;1.94;
61804;PMS7003;47725;47.912;7.356;2023-09-30T00:49:39;1.94;1.94;
61804;PMS7003;47725;47.912;7.356;2023-09-30T00:53:39;1.94;1.94;
61804;PMS7003;47725;47.912;7.356;2023-09-30T00:57:39;2.91;2.91;
61804;PMS7003;47725;47.912;7.356;2023-09-30T01:01:42;2.91;2.91;
61804;PMS7003;47725;47.912;7.356;2023-09-30T01:05:39;0.97;0.97;
61804;PMS7003;47725;47.912;7.356;2023-09-30T01:09:39;0.97;0.97;
61804;PMS7003;47725;47.912;7.356;2023-09-30T01:13:39;0.97;0.97;
61804;PMS7003;47725;47.912;7.356;2023-09-30T01:17:39;1.93;1.93;
61804;PMS7003;47725;47.912;7.356;2023-09-30T01:21:39;1.93;1.93;
61804;PMS7003;47725;47.912;7.356;2023-09-30T01:25:39;1.94;1.94;
61804;PMS7003;47725;47.912;7.356;2023-09-30T01:29:39;1.94;1.94;
61804;PMS7003;47725;47.912;7.356;2023-09-30T01:33:39;1.94;1.94;
61804;PMS7003;47725;47.912;7.356;2023-09-30T01:37:39;3.86;2.90;
61804;PMS7003;47725;47.912;7.356;2023-09-30T01:41:40;3.86;2.90;
61804;PMS7003;47725;47.912;7.356;2023-09-30T01:45:40;2.90;2.90;
61804;PMS7003;47725;47.912;7.356;2023-09-30T01:49:39;2.90;2.90;
61804;PMS7003;47725;47.912;7.356;2023-09-30T01:53:40;2.90;2.90;
61804;PMS7003;47725;47.912;7.356;2023-09-30T01:57:39;3.87;1.93;
61804;PMS7003;47725;47.912;7.356;2023-09-30T02:01:39;3.87;1.93;
61804;PMS7003;47725;47.912;7.356;2023-09-30T02:05:39;1.93;1.93;
61804;PMS7003;47725;47.912;7.356;2023-09-30T02:09:39;1.93;1.93;
61804;PMS7003;47725;47.912;7.356;2023-09-30T02:13:40;1.93;1.93;
61804;PMS7003;47725;47.912;7.356;2023-09-30T02:17:40;2.89;2.89;
61804;PMS7003;47725;47.912;7.356;2023-09-30T02:21:39;2.89;2.89;
61804;PMS7003;47725;47.912;7.356;2023-09-30T02:25:39;3.85;2.89;
61804;PMS7003;47725;47.912;7.356;2023-09-30T02:29:39;3.85;2.89;
61804;PMS7003;47725;47.912;7.356;2023-09-30T02:33:39;3.85;2.89;
61804;PMS7003;47725;47.912;7.356;2023-09-30T02:37:39;2.89;0.96;
61804;PMS7003;47725;47.912;7.356;2023-09-30T02:41:39;2.89;0.96;
61804;PMS7003;47725;47.912;7.356;2023-09-30T02:45:39;0.96;0.96;
61804;PMS7003;47725;47.912;7.356;2023-09-30T02:49:39;0.96;0.96;
61804;PMS7003;47725;47.912;7.356;2023-09-30T02:53:39;0.96;0.96;
61804;PMS7003;47725;47.912;7.356;2023-09-30T02:57:39;2.88;2.88;
61804;PMS7003;47725;47.912;7.356;2023-09-30T03:01:39;2.88;2.88;
61804;PMS7003;47725;47.912;7.356;2023-09-30T03:05:39;2.88;2.88;
61804;PMS7003;47725;47.912;7.356;2023-09-30T03:09:39;2.88;2.88;
61804;PMS7003;47725;47.912;7.356;2023-09-30T03:13:39;2.88;2.88;
61804;PMS7003;47725;47.912;7.356;2023-09-30T03:17:40;2.87;1.92;
61804;PMS7003;47725;47.912;7.356;2023-09-30T03:21:39;2.87;1.92;
61804;PMS7003;47725;47.912;7.356;2023-09-30T03:25:39;2.87;1.92;
61804;PMS7003;47725;47.912;7.356;2023-09-30T03:29:39;2.87;1.92;
61804;PMS7003;47725;47.912;7.356;2023-09-30T03:33:39;2.87;1.92;
61804;PMS7003;47725;47.912;7.356;2023-09-30T03:37:39;8.60;5.73;
61804;PMS7003;47725;47.912;7.356;2023-09-30T03:41:39;8.60;5.73;
61804;PMS7003;47725;47.912;7.356;2023-09-30T03:45:39;4.76;4.76;
61804;PMS7003;47725;47.912;7.356;2023-09-30T03:49:39;4.76;4.76;
61804;PMS7003;47725;47.912;7.356;2023-09-30T03:53:42;4.76;4.76;
61804;PMS7003;47725;47.912;7.356;2023-09-30T03:57:40;6.66;4.76;
61804;PMS7003;47725;47.912;7.356;2023-09-30T04:01:39;6.66;4.76;
61804;PMS7003;47725;47.912;7.356;2023-09-30T04:05:39;6.67;4.76;
61804;PMS7003;47725;47.912;7.356;2023-09-30T04:09:39;6.67;4.76;
61804;PMS7003;47725;47.912;7.356;2023-09-30T04:13:39;6.67;4.76;
61804;PMS7003;47725;47.912;7.356;2023-09-30T04:17:39;7.61;5.71;
61804;PMS7003;47725;47.912;7.356;2023-09-30T04:21:39;7.61;5.71;
61804;PMS7003;47725;47.912;7.356;2023-09-30T04:25:39;7.62;5.71;
61804;PMS7003;47725;47.912;7.356;2023-09-30T04:29:39;7.62;5.71;
61804;PMS7003;47725;47.912;7.356;2023-09-30T04:33:39;7.62;5.71;
61804;PMS7003;47725;47.912;7.356;2023-09-30T04:37:39;9.52;5.71;
61804;PMS7003;47725;47.912;7.356;2023-09-30T04:41:39;9.52;5.71;
61804;PMS7003;47725;47.912;7.356;2023-09-30T04:45:39;7.61;5.70;
61804;PMS7003;47725;47.912;7.356;2023-09-30T04:49:39;7.61;5.70;
61804;PMS7003;47725;47.912;7.356;2023-09-30T04:53:39;7.61;5.70;
61804;PMS7003;47725;47.912;7.356;2023-09-30T04:57:39;6.65;5.70;
61804;PMS7003;47725;47.912;7.356;2023-09-30T05:01:39;6.65;5.70;
61804;PMS7003;47725;47.912;7.356;2023-09-30T05:05:39;5.69;4.74;
61804;PMS7003;47725;47.912;7.356;2023-09-30T05:09:39;5.69;4.74;
61804;PMS7003;47725;47.912;7.356;2023-09-30T05:13:39;5.69;4.74;
61804;PMS7003;47725;47.912;7.356;2023-09-30T05:17:39;5.66;4.72;
61804;PMS7003;47725;47.912;7.356;2023-09-30T05:21:39;5.66;4.72;
61804;PMS7003;47725;47.912;7.356;2023-09-30T05:25:39;8.45;6.57;
61804;PMS7003;47725;47.912;7.356;2023-09-30T05:29:39;8.45;6.57;
61804;PMS7003;47725;47.912;7.356;2023-09-30T05:33:39;8.45;6.57;
61804;PMS7003;47725;47.912;7.356;2023-09-30T05:37:42;4.68;4.68;
61804;PMS7003;47725;47.912;7.356;2023-09-30T05:41:39;4.68;4.68;
61804;PMS7003;47725;47.912;7.356;2023-09-30T05:45:39;4.68;4.68;
61804;PMS7003;47725;47.912;7.356;2023-09-30T05:49:39;4.68;4.68;
61804;PMS7003;47725;47.912;7.356;2023-09-30T05:53:39;4.68;4.68;
61804;PMS7003;47725;47.912;7.356;2023-09-30T05:57:39;4.67;4.67;
61804;PMS7003;47725;47.912;7.356;2023-09-30T06:01:39;4.67;4.67;
61804;PMS7003;47725;47.912;7.356;2023-09-30T06:05:40;14.94;14.94;
61804;PMS7003;47725;47.912;7.356;2023-09-30T06:09:39;14.94;14.94;
61804;PMS7003;47725;47.912;7.356;2023-09-30T06:13:39;14.94;14.94;
61804;PMS7003;47725;47.912;7.356;2023-09-30T06:17:40;5.58;4.65;
61804;PMS7003;47725;47.912;7.356;2023-09-30T06:21:39;5.58;4.65;
61804;PMS7003;47725;47.912;7.356;2023-09-30T06:25:39;5.57;3.71;
61804;PMS7003;47725;47.912;7.356;2023-09-30T06:29:39;5.57;3.71;
61804;PMS7003;47725;47.912;7.356;2023-09-30T06:33:39;5.57;3.71;
61804;PMS7003;47725;47.912;7.356;2023-09-30T06:37:39;3.75;3.75;
61804;PMS7003;47725;47.912;7.356;2023-09-30T06:41:39;3.75;3.75;
61804;PMS7003;47725;47.912;7.356;2023-09-30T06:45:39;9.38;5.63;
61804;PMS7003;47725;47.912;7.356;2023-09-30T06:49:39;9.38;5.63;
61804;PMS7003;47725;47.912;7.356;2023-09-30T06:53:39;9.38;5.63;
61804;PMS7003;47725;47.912;7.356;2023-09-30T06:57:39;23.39;21.52;
61804;PMS7003;47725;47.912;7.356;2023-09-30T07:01:39;23.39;21.52;
61804;PMS7003;47725;47.912;7.356;2023-09-30T07:05:39;6.56;3.75;
61804;PMS7003;47725;47.912;7.356;2023-09-30T07:09:39;6.56;3.75;
61804;PMS7003;47725;47.912;7.356;2023-09-30T07:13:39;6.56;3.75;
61804;PMS7003;47725;47.912;7.356;2023-09-30T07:17:39;5.60;5.60;
61804;PMS7003;47725;47.912;7.356;2023-09-30T07:21:39;5.60;5.60;
61804;PMS7003;47725;47.912;7.356;2023-09-30T07:25:39;6.51;6.51;
61804;PMS7003;47725;47.912;7.356;2023-09-30T07:29:39;6.51;6.51;
61804;PMS7003;47725;47.912;7.356;2023-09-30T07:33:39;6.51;6.51;
61804;PMS7003;47725;47.912;7.356;2023-09-30T07:37:39;6.57;3.75;
61804;PMS7003;47725;47.912;7.356;2023-09-30T07:41:39;6.57;3.75;
61804;PMS7003;47725;47.912;7.356;2023-09-30T07:45:39;4.68;2.81;
61804;PMS7003;47725;47.912;7.356;2023-09-30T07:49:39;4.68;2.81;
61804;PMS7003;47725;47.912;7.356;2023-09-30T07:53:39;4.68;2.81;
61804;PMS7003;47725;47.912;7.356;2023-09-30T07:57:40;4.71;4.71;
61804;PMS7003;47725;47.912;7.356;2023-09-30T08:01:39;4.71;4.71;
61804;PMS7003;47725;47.912;7.356;2023-09-30T08:05:39;6.61;4.72;
61804;PMS7003;47725;47.912;7.356;2023-09-30T08:09:39;6.61;4.72;
61804;PMS7003;47725;47.912;7.356;2023-09-30T08:13:39;6.61;4.72;
61804;PMS7003;47725;47.912;7.356;2023-09-30T08:17:48;7.55;4.72;
61804;PMS7003;47725;47.912;7.356;2023-09-30T08:21:39;7.55;4.72;
61804;PMS7003;47725;47.912;7.356;2023-09-30T08:25:39;3.78;3.78;
61804;PMS7003;47725;47.912;7.356;2023-09-30T08:29:39;3.78;3.78;
61804;PMS7003;47725;47.912;7.356;2023-09-30T08:33:39;3.78;3.78;
61804;PMS7003;47725;47.912;7.356;2023-09-30T08:37:39;1.90;1.90;
61804;PMS7003;47725;47.912;7.356;2023-09-30T08:41:39;1.90;1.90;
61804;PMS7003;47725;47.912;7.356;2023-09-30T08:45:39;3.81;2.86;
61804;PMS7003;47725;47.912;7.356;2023-09-30T08:49:39;3.81;2.86;
61804;PMS7003;47725;47.912;7.356;2023-09-30T08:53:39;3.81;2.86;
61804;PMS7003;47725;47.912;7.356;2023-09-30T08:57:42;3.83;1.91;
61804;PMS7003;47725;47.912;7.356;2023-09-30T09:01:39;3.83;1.91;
61804;PMS7003;47725;47.912;7.356;2023-09-30T09:05:39;1.92;1.92;
61804;PMS7003;47725;47.912;7.356;2023-09-30T09:09:39;1.92;1.92;
61804;PMS7003;47725;47.912;7.356;2023-09-30T09:13:46;1.92;1.92;
61804;PMS7003;47725;47.912;7.356;2023-09-30T09:17:43;1.94;1.94;
61804;PMS7003;47725;47.912;7.356;2023-09-30T09:21:39;1.94;1.94;
61804;PMS7003;47725;47.912;7.356;2023-09-30T09:25:39;1.96;0.98;
61804;PMS7003;47725;47.912;7.356;2023-09-30T09:29:39;1.96;0.98;
61804;PMS7003;47725;47.912;7.356;2023-09-30T09:33:39;1.96;0.98;
61804;PMS7003;47725;47.912;7.356;2023-09-30T09:37:39;0.98;0.98;
61804;PMS7003;47725;47.912;7.356;2023-09-30T09:41:56;0.98;0.98;
61804;PMS7003;47725;47.912;7.356;2023-09-30T09:45:39;1.97;1.97;
61804;PMS7003;47725;47.912;7.356;2023-09-30T09:49:39;1.97;1.97;
61804;PMS7003;47725;47.912;7.356;2023-09-30T09:53:40;1.97;1.97;
61804;PMS7003;47725;47.912;7.356;2023-09-30T09:57:39;1.97;1.97;
61804;PMS7003;47725;47.912;7.356;2023-09-30T10:01:40;1.97;1.97;
61804;PMS7003;47725;47.912;7.356;2023-09-30T10:05:39;0.98;0.98;
61804;PMS7003;47725;47.912;7.356;2023-09-30T10:09:39;0.98;0.98;
61804;PMS7003;47725;47.912;7.356;2023-09-30T10:13:55;0.98;0.98;
61804;PMS7003;47725;47.912;7.356;2023-09-30T10:21:39;0.00;0.00;
61804;PMS7003;47725;47.912;7.356;2023-09-30T10:25:39;0.99;0.99;
61804;PMS7003;47725;47.912;7.356;2023-09-30T10:29:42;0.99;0.99;
61804;PMS7003;47725;47.912;7.356;2023-09-30T10:37:39;0.99;0.99;
61804;PMS7003;47725;47.912;7.356;2023-09-30T10:49:39;1.98;1.98;
61804;PMS7003;47725;47.912;7.356;2023-09-30T10:53:43;1.98;1.98;
61804;PMS7003;47725;47.912;7.356;2023-09-30T10:57:39;1.98;1.98;
61804;PMS7003;47725;47.912;7.356;2023-09-30T11:01:39;1.98;1.98;
61804;PMS7003;47725;47.912;7.356;2023-09-30T11:05:39;2.98;2.98;
61804;PMS7003;47725;47.912;7.356;2023-09-30T11:09:39;2.98;2.98;
61804;PMS7003;47725;47.912;7.356;2023-09-30T11:13:39;2.98;2.98;
61804;PMS7003;47725;47.912;7.356;2023-09-30T11:17:39;5.97;3.98;
61804;PMS7003;47725;47.912;7.356;2023-09-30T11:21:39;5.97;3.98;
61804;PMS7003;47725;47.912;7.356;2023-09-30T11:25:39;6.97;3.99;
61804;PMS7003;47725;47.912;7.356;2023-09-30T11:29:48;6.97;3.99;
61804;PMS7003;47725;47.912;7.356;2023-09-30T11:33:48;6.97;3.99;
61804;PMS7003;47725;47.912;7.356;2023-09-30T11:37:40;4.98;4.98;
61804;PMS7003;47725;47.912;7.356;2023-09-30T11:41:39;4.98;4.98;
61804;PMS7003;47725;47.912;7.356;2023-09-30T11:45:39;5.98;3.99;
61804;PMS7003;47725;47.912;7.356;2023-09-30T11:49:40;5.98;3.99;
61804;PMS7003;47725;47.912;7.356;2023-09-30T11:53:39;5.98;3.99;
61804;PMS7003;47725;47.912;7.356;2023-09-30T11:57:39;4.99;4.99;
61804;PMS7003;47725;47.912;7.356;2023-09-30T12:01:39;4.99;4.99;
61804;PMS7003;47725;47.912;7.356;2023-09-30T12:05:39;5.98;4.99;
61804;PMS7003;47725;47.912;7.356;2023-09-30T12:09:39;5.98;4.99;
61804;PMS7003;47725;47.912;7.356;2023-09-30T12:13:39;5.98;4.99;
61804;PMS7003;47725;47.912;7.356;2023-09-30T12:17:39;8.98;8.98;
61804;PMS7003;47725;47.912;7.356;2023-09-30T12:21:39;8.98;8.98;
61804;PMS7003;47725;47.912;7.356;2023-09-30T12:25:39;8.98;4.99;
61804;PMS7003;47725;47.912;7.356;2023-09-30T12:29:39;8.98;4.99;
61804;PMS7003;47725;47.912;7.356;2023-09-30T12:33:39;8.98;4.99;
61804;PMS7003;47725;47.912;7.356;2023-09-30T12:37:39;4.99;2.99;
61804;PMS7003;47725;47.912;7.356;2023-09-30T12:41:39;4.99;2.99;
61804;PMS7003;47725;47.912;7.356;2023-09-30T12:45:39;4.99;2.99;
61804;PMS7003;47725;47.912;7.356;2023-09-30T12:49:39;4.99;2.99;
61804;PMS7003;47725;47.912;7.356;2023-09-30T12:53:39;4.99;2.99;
61804;PMS7003;47725;47.912;7.356;2023-09-30T12:57:39;7.99;4.99;
61804;PMS7003;47725;47.912;7.356;2023-09-30T13:01:39;7.99;4.99;
61804;PMS7003;47725;47.912;7.356;2023-09-30T13:05:39;3.99;3.99;
61804;PMS7003;47725;47.912;7.356;2023-09-30T13:09:39;3.99;3.99;
61804;PMS7003;47725;47.912;7.356;2023-09-30T13:13:39;3.99;3.99;
61804;PMS7003;47725;47.912;7.356;2023-09-30T13:17:39;5.99;4.99;
61804;PMS7003;47725;47.912;7.356;2023-09-30T13:21:39;5.99;4.99;
61804;PMS7003;47725;47.912;7.356;2023-09-30T13:25:44;6.99;3.99;
61804;PMS7003;47725;47.912;7.356;2023-09-30T13:29:39;6.99;3.99;
61804;PMS7003;47725;47.912;7.356;2023-09-30T13:33:39;6.99;3.99;
61804;PMS7003;47725;47.912;7.356;2023-09-30T13:37:39;10.98;6.99;
61804;PMS7003;47725;47.912;7.356;2023-09-30T13:41:39;10.98;6.99;
61804;PMS7003;47725;47.912;7.356;2023-09-30T13:45:39;8.99;4.00;
61804;PMS7003;47725;47.912;7.356;2023-09-30T13:49:39;8.99;4.00;
61804;PMS7003;47725;47.912;7.356;2023-09-30T13:53:39;8.99;4.00;
61804;PMS7003;47725;47.912;7.356;2023-09-30T13:57:39;4.00;4.00;
61804;PMS7003;47725;47.912;7.356;2023-09-30T14:01:39;4.00;4.00;
61804;PMS7003;47725;47.912;7.356;2023-09-30T14:05:39;6.99;4.00;
61804;PMS7003;47725;47.912;7.356;2023-09-30T14:09:42;6.99;4.00;
61804;PMS7003;47725;47.912;7.356;2023-09-30T14:13:39;6.99;4.00;
61804;PMS7003;47725;47.912;7.356;2023-09-30T14:17:39;4.00;4.00;
61804;PMS7003;47725;47.912;7.356;2023-09-30T14:21:41;4.00;4.00;
61804;PMS7003;47725;47.912;7.356;2023-09-30T14:25:39;4.00;4.00;
61804;PMS7003;47725;47.912;7.356;2023-09-30T14:29:39;4.00;4.00;
61804;PMS7003;47725;47.912;7.356;2023-09-30T14:33:39;4.00;4.00;
61804;PMS7003;47725;47.912;7.356;2023-09-30T14:37:39;4.99;3.99;
61804;PMS7003;47725;47.912;7.356;2023-09-30T14:41:39;4.99;3.99;
61804;PMS7003;47725;47.912;7.356;2023-09-30T14:45:39;4.99;3.00;
61804;PMS7003;47725;47.912;7.356;2023-09-30T14:49:39;4.99;3.00;
61804;PMS7003;47725;47.912;7.356;2023-09-30T14:53:42;4.99;3.00;
61804;PMS7003;47725;47.912;7.356;2023-09-30T14:57:39;5.99;5.99;
61804;PMS7003;47725;47.912;7.356;2023-09-30T15:01:39;5.99;5.99;
61804;PMS7003;47725;47.912;7.356;2023-09-30T15:05:39;4.99;4.99;
61804;PMS7003;47725;47.912;7.356;2023-09-30T15:09:42;4.99;4.99;
61804;PMS7003;47725;47.912;7.356;2023-09-30T15:13:39;4.99;4.99;
61804;PMS7003;47725;47.912;7.356;2023-09-30T15:17:42;8.99;7.99;
61804;PMS7003;47725;47.912;7.356;2023-09-30T15:21:39;8.99;7.99;
61804;PMS7003;47725;47.912;7.356;2023-09-30T15:25:42;6.99;5.99;
61804;PMS7003;47725;47.912;7.356;2023-09-30T15:29:39;6.99;5.99;
61804;PMS7003;47725;47.912;7.356;2023-09-30T15:33:41;6.99;5.99;
61804;PMS7003;47725;47.912;7.356;2023-09-30T15:37:39;10.98;8.98;
61804;PMS7003;47725;47.912;7.356;2023-09-30T15:41:39;10.98;8.98;
61804;PMS7003;47725;47.912;7.356;2023-09-30T15:45:39;4.99;4.99;
61804;PMS7003;47725;47.912;7.356;2023-09-30T15:49:39;4.99;4.99;
61804;PMS7003;47725;47.912;7.356;2023-09-30T15:53:39;4.99;4.99;
61804;PMS7003;47725;47.912;7.356;2023-09-30T16:01:39;4.99;3.99;
61804;PMS7003;47725;47.912;7.356;2023-09-30T16:05:39;7.98;4.99;
61804;PMS7003;47725;47.912;7.356;2023-09-30T16:09:41;7.98;4.99;
61804;PMS7003;47725;47.912;7.356;2023-09-30T16:13:39;7.98;4.99;
61804;PMS7003;47725;47.912;7.356;2023-09-30T16:17:39;3.99;3.99;
61804;PMS7003;47725;47.912;7.356;2023-09-30T16:21:42;3.99;3.99;
61804;PMS7003;47725;47.912;7.356;2023-09-30T16:25:39;2.99;2.99;
61804;PMS7003;47725;47.912;7.356;2023-09-30T16:29:39;2.99;2.99;
61804;PMS7003;47725;47.912;7.356;2023-09-30T16:33:42;2.99;2.99;
61804;PMS7003;47725;47.912;7.356;2023-09-30T16:37:39;3.99;3.99;
61804;PMS7003;47725;47.912;7.356;2023-09-30T16:41:39;3.99;3.99;
61804;PMS7003;47725;47.912;7.356;2023-09-30T16:45:39;3.99;3.99;
61804;PMS7003;47725;47.912;7.356;2023-09-30T16:49:39;3.99;3.99;
61804;PMS7003;47725;47.912;7.356;2023-09-30T16:53:39;3.99;3.99;
61804;PMS7003;47725;47.912;7.356;2023-09-30T16:57:42;6.97;4.98;
61804;PMS7003;47725;47.912;7.356;2023-09-30T17:01:39;6.97;4.98;
61804;PMS7003;47725;47.912;7.356;2023-09-30T17:09:39;3.98;3.98;
61804;PMS7003;47725;47.912;7.356;2023-09-30T17:13:39;3.98;3.98;
61804;PMS7003;47725;47.912;7.356;2023-09-30T17:17:44;4.98;3.98;
61804;PMS7003;47725;47.912;7.356;2023-09-30T17:21:39;4.98;3.98;
61804;PMS7003;47725;47.912;7.356;2023-09-30T17:25:39;5.97;3.98;
61804;PMS7003;47725;47.912;7.356;2023-09-30T17:29:39;5.97;3.98;
61804;PMS7003;47725;47.912;7.356;2023-09-30T17:33:39;5.97;3.98;
61804;PMS7003;47725;47.912;7.356;2023-09-30T17:37:39;4.97;3.98;
61804;PMS7003;47725;47.912;7.356;2023-09-30T17:41:39;4.97;3.98;
61804;PMS7003;47725;47.912;7.356;2023-09-30T17:45:39;2.98;2.98;
61804;PMS7003;47725;47.912;7.356;2023-09-30T17:49:42;2.98;2.98;
61804;PMS7003;47725;47.912;7.356;2023-09-30T17:53:39;2.98;2.98;
61804;PMS7003;47725;47.912;7.356;2023-09-30T17:57:39;5.97;3.98;
61804;PMS7003;47725;47.912;7.356;2023-09-30T18:01:39;5.97;3.98;
61804;PMS7003;47725;47.912;7.356;2023-09-30T18:05:39;7.95;6.96;
61804;PMS7003;47725;47.912;7.356;2023-09-30T18:09:39;7.95;6.96;
61804;PMS7003;47725;47.912;7.356;2023-09-30T18:13:39;7.95;6.96;
61804;PMS7003;47725;47.912;7.356;2023-09-30T18:17:39;6.95;3.97;
61804;PMS7003;47725;47.912;7.356;2023-09-30T18:21:38;6.95;3.97;
61804;PMS7003;47725;47.912;7.356;2023-09-30T18:25:40;4.96;4.96;
61804;PMS7003;47725;47.912;7.356;2023-09-30T18:29:39;4.96;4.96;
61804;PMS7003;47725;47.912;7.356;2023-09-30T18:33:38;4.96;4.96;
61804;PMS7003;47725;47.912;7.356;2023-09-30T18:37:38;4.96;4.96;
61804;PMS7003;47725;47.912;7.356;2023-09-30T18:41:38;4.96;4.96;
61804;PMS7003;47725;47.912;7.356;2023-09-30T18:45:45;6.93;4.95;
61804;PMS7003;47725;47.912;7.356;2023-09-30T18:49:38;6.93;4.95;
61804;PMS7003;47725;47.912;7.356;2023-09-30T18:53:39;6.93;4.95;
61804;PMS7003;47725;47.912;7.356;2023-09-30T18:57:38;5.93;4.94;
61804;PMS7003;47725;47.912;7.356;2023-09-30T19:01:38;5.93;4.94;
61804;PMS7003;47725;47.912;7.356;2023-09-30T19:05:39;4.94;4.94;
61804;PMS7003;47725;47.912;7.356;2023-09-30T19:09:38;4.94;4.94;
61804;PMS7003;47725;47.912;7.356;2023-09-30T19:13:39;4.94;4.94;
61804;PMS7003;47725;47.912;7.356;2023-09-30T19:17:38;7.89;6.90;
61804;PMS7003;47725;47.912;7.356;2023-09-30T19:21:38;7.89;6.90;
61804;PMS7003;47725;47.912;7.356;2023-09-30T19:25:38;4.93;3.95;
61804;PMS7003;47725;47.912;7.356;2023-09-30T19:29:38;4.93;3.95;
61804;PMS7003;47725;47.912;7.356;2023-09-30T19:33:38;4.93;3.95;
61804;PMS7003;47725;47.912;7.356;2023-09-30T19:37:38;2.96;2.96;
61804;PMS7003;47725;47.912;7.356;2023-09-30T19:41:38;2.96;2.96;
61804;PMS7003;47725;47.912;7.356;2023-09-30T19:45:38;5.91;4.92;
61804;PMS7003;47725;47.912;7.356;2023-09-30T19:49:38;5.91;4.92;
61804;PMS7003;47725;47.912;7.356;2023-09-30T19:53:38;5.91;4.92;
61804;PMS7003;47725;47.912;7.356;2023-09-30T19:57:38;5.90;4.92;
61804;PMS7003;47725;47.912;7.356;2023-09-30T20:01:38;5.90;4.92;
61804;PMS7003;47725;47.912;7.356;2023-09-30T20:05:38;4.91;3.93;
61804;PMS7003;47725;47.912;7.356;2023-09-30T20:09:38;4.91;3.93;
61804;PMS7003;47725;47.912;7.356;2023-09-30T20:13:38;4.91;3.93;
61804;PMS7003;47725;47.912;7.356;2023-09-30T20:17:38;5.88;4.90;
61804;PMS7003;47725;47.912;7.356;2023-09-30T20:21:38;5.88;4.90;
61804;PMS7003;47725;47.912;7.356;2023-09-30T20:25:38;6.85;3.92;
61804;PMS7003;47725;47.912;7.356;2023-09-30T20:29:38;6.85;3.92;
61804;PMS7003;47725;47.912;7.356;2023-09-30T20:33:38;6.85;3.92;
61804;PMS7003;47725;47.912;7.356;2023-09-30T20:37:38;5.87;4.89;
61804;PMS7003;47725;47.912;7.356;2023-09-30T20:41:38;5.87;4.89;
61804;PMS7003;47725;47.912;7.356;2023-09-30T20:45:38;7.79;5.84;
61804;PMS7003;47725;47.912;7.356;2023-09-30T20:49:38;7.79;5.84;
61804;PMS7003;47725;47.912;7.356;2023-09-30T20:53:38;7.79;5.84;
61804;PMS7003;47725;47.912;7.356;2023-09-30T20:57:38;4.86;4.86;
61804;PMS7003;47725;47.912;7.356;2023-09-30T21:01:38;4.86;4.86;
61804;PMS7003;47725;47.912;7.356;2023-09-30T21:05:38;10.66;5.81;
61804;PMS7003;47725;47.912;7.356;2023-09-30T21:09:38;10.66;5.81;
61804;PMS7003;47725;47.912;7.356;2023-09-30T21:13:38;10.66;5.81;
61804;PMS7003;47725;47.912;7.356;2023-09-30T21:17:38;9.69;6.78;
61804;PMS7003;47725;47.912;7.356;2023-09-30T21:21:38;9.69;6.78;
61804;PMS7003;47725;47.912;7.356;2023-09-30T21:25:38;7.72;4.83;
61804;PMS7003;47725;47.912;7.356;2023-09-30T21:29:38;7.72;4.83;
61804;PMS7003;47725;47.912;7.356;2023-09-30T21:33:38;7.72;4.83;
61804;PMS7003;47725;47.912;7.356;2023-09-30T21:37:38;6.75;6.75;
61804;PMS7003;47725;47.912;7.356;2023-09-30T21:41:38;6.75;6.75;
61804;PMS7003;47725;47.912;7.356;2023-09-30T21:45:38;9.61;5.77;
61804;PMS7003;47725;47.912;7.356;2023-09-30T21:49:38;9.61;5.77;
61804;PMS7003;47725;47.912;7.356;2023-09-30T21:53:38;9.61;5.77;
61804;PMS7003;47725;47.912;7.356;2023-09-30T21:57:38;6.72;6.72;
61804;PMS7003;47725;47.912;7.356;2023-09-30T22:01:38;6.72;6.72;
61804;PMS7003;47725;47.912;7.356;2023-09-30T22:05:38;7.65;7.65;
61804;PMS7003;47725;47.912;7.356;2023-09-30T22:09:38;7.65;7.65;
61804;PMS7003;47725;47.912;7.356;2023-09-30T22:13:38;7.65;7.65;
61804;PMS7003;47725;47.912;7.356;2023-09-30T22:17:38;6.70;6.70;
61804;PMS7003;47725;47.912;7.356;2023-09-30T22:21:38;6.70;6.70;
61804;PMS7003;47725;47.912;7.356;2023-09-30T22:25:38;7.68;4.80;
61804;PMS7003;47725;47.912;7.356;2023-09-30T22:29:38;7.68;4.80;
61804;PMS7003;47725;47.912;7.356;2023-09-30T22:33:38;7.68;4.80;
61804;PMS7003;47725;47.912;7.356;2023-09-30T22:37:38;7.63;4.77;
61804;PMS7003;47725;47.912;7.356;2023-09-30T22:41:38;7.63;4.77;
61804;PMS7003;47725;47.912;7.356;2023-09-30T22:45:38;9.54;7.63;
61804;PMS7003;47725;47.912;7.356;2023-09-30T22:49:38;9.54;7.63;
61804;PMS7003;47725;47.912;7.356;2023-09-30T22:53:38;9.54;7.63;
61804;PMS7003;47725;47.912;7.356;2023-09-30T22:57:39;9.52;7.62;
61804;PMS7003;47725;47.912;7.356;2023-09-30T23:01:38;9.52;7.62;
61804;PMS7003;47725;47.912;7.356;2023-09-30T23:05:38;7.61;7.61;
61804;PMS7003;47725;47.912;7.356;2023-09-30T23:09:38;7.61;7.61;
61804;PMS7003;47725;47.912;7.356;2023-09-30T23:13:38;7.61;7.61;
61804;PMS7003;47725;47.912;7.356;2023-09-30T23:17:38;10.48;9.52;
61804;PMS7003;47725;47.912;7.356;2023-09-30T23:21:38;10.48;9.52;
61804;PMS7003;47725;47.912;7.356;2023-09-30T23:25:38;5.69;5.69;
61804;PMS7003;47725;47.912;7.356;2023-09-30T23:29:38;5.69;5.69;
61804;PMS7003;47725;47.912;7.356;2023-09-30T23:33:38;5.69;5.69;
61804;PMS7003;47725;47.912;7.356;2023-09-30T23:37:38;6.65;6.65;
61804;PMS7003;47725;47.912;7.356;2023-09-30T23:41:38;6.65;6.65;
61804;PMS7003;47725;47.912;7.356;2023-09-30T23:45:38;10.41;6.63;
61804;PMS7003;47725;47.912;7.356;2023-09-30T23:49:38;10.41;6.63;
61804;PMS7003;47725;47.912;7.356;2023-09-30T23:53:38;10.41;6.63;
61804;PMS7003;47725;47.912;7.356;2023-09-30T23:57:41;9.47;7.58;
